createdAt,value
2019-05-20T00:03:44.985Z,14.70
2019-05-20T00:08:48.673Z,14.90
2019-05-20T00:13:52.228Z,14.80
2019-05-20T00:18:55.810Z,14.80
2019-05-20T00:23:59.423Z,14.10
2019-05-20T00:29:03.130Z,13.70
2019-05-20T00:34:06.690Z,14.20
2019-05-20T00:39:20.156Z,13.90
2019-05-20T00:44:23.862Z,13.10
2019-05-20T00:49:27.443Z,13.20
2019-05-20T00:54:31.000Z,13.70
2019-05-20T00:59:34.602Z,13.80
2019-05-20T01:04:38.286Z,13.70
2019-05-20T01:09:41.941Z,13.10
2019-05-20T01:14:45.514Z,13.40
2019-05-20T01:19:49.179Z,13.50
2019-05-20T01:24:52.731Z,13.50
2019-05-20T01:29:56.390Z,13.40
2019-05-20T01:34:59.992Z,13.40
2019-05-20T01:40:04.403Z,13.30
2019-05-20T01:45:09.638Z,13.30
2019-05-20T01:50:13.563Z,13.00
2019-05-20T01:55:17.292Z,12.90
2019-05-20T02:00:21.735Z,13.00
2019-05-20T02:05:25.767Z,12.70
2019-05-20T02:10:29.715Z,12.50
2019-05-20T02:15:35.016Z,12.50
2019-05-20T02:20:39.038Z,12.70
2019-05-20T02:25:46.666Z,12.30
2019-05-20T02:30:50.837Z,12.30
2019-05-20T02:35:54.481Z,12.30
2019-05-20T02:40:59.091Z,12.30
2019-05-20T02:46:02.859Z,12.20
2019-05-20T02:51:06.459Z,12.10
2019-05-20T02:56:10.111Z,12.20
2019-05-20T03:01:13.723Z,12.20
2019-05-20T03:06:17.452Z,12.20
2019-05-20T03:11:21.123Z,12.10
2019-05-20T03:16:24.774Z,12.30
2019-05-20T03:21:28.356Z,12.30
2019-05-20T03:26:32.002Z,12.40
2019-05-20T03:31:35.685Z,12.50
2019-05-20T03:36:39.238Z,12.50
2019-05-20T03:41:42.837Z,12.30
2019-05-20T03:46:46.441Z,12.10
2019-05-20T03:51:52.458Z,12.40
2019-05-20T03:56:55.359Z,12.30
2019-05-20T04:01:58.950Z,12.60
2019-05-20T04:07:02.516Z,12.70
2019-05-20T04:12:06.257Z,12.50
2019-05-20T04:17:09.848Z,12.50
2019-05-20T04:22:13.398Z,12.40
2019-05-20T04:27:16.969Z,12.60
2019-05-20T04:32:20.655Z,12.60
2019-05-20T04:37:24.247Z,12.80
2019-05-20T04:42:27.814Z,13.10
2019-05-20T04:47:31.468Z,13.70
2019-05-20T04:52:35.073Z,13.90
2019-05-20T04:57:38.672Z,14.20
2019-05-20T05:02:43.662Z,14.60
2019-05-20T05:07:47.753Z,15.00
2019-05-20T05:12:51.370Z,15.20
2019-05-20T05:17:55.178Z,15.30
2019-05-20T05:22:58.915Z,16.00
2019-05-20T05:28:02.608Z,16.40
2019-05-20T05:33:06.267Z,17.20
2019-05-20T05:38:10.021Z,17.20
2019-05-20T05:43:13.575Z,16.30
2019-05-20T05:48:17.254Z,16.30
2019-05-20T05:53:20.983Z,16.20
2019-05-20T05:58:24.666Z,16.20
2019-05-20T06:03:28.340Z,16.10
2019-05-20T06:08:32.006Z,15.90
2019-05-20T06:13:35.601Z,16.00
2019-05-20T06:18:39.267Z,16.10
2019-05-20T06:23:42.887Z,16.20
2019-05-20T06:28:46.539Z,16.20
2019-05-20T06:33:50.290Z,16.40
2019-05-20T06:39:13.791Z,16.30
2019-05-20T06:44:17.640Z,16.40
2019-05-20T06:49:21.240Z,16.40
2019-05-20T06:54:24.798Z,16.40
2019-05-20T06:59:28.383Z,16.10
2019-05-20T07:04:32.810Z,16.20
2019-05-20T07:09:36.419Z,16.10
2019-05-20T07:14:40.127Z,16.10
2019-05-20T07:19:43.723Z,16.20
2019-05-20T07:24:47.325Z,16.40
2019-05-20T07:29:50.987Z,16.50
2019-05-20T07:34:54.660Z,16.40
2019-05-20T07:39:58.302Z,16.60
2019-05-20T07:45:02.194Z,16.50
2019-05-20T07:50:08.118Z,16.40
2019-05-20T07:55:12.210Z,16.40
2019-05-20T08:00:16.103Z,16.70
2019-05-20T08:05:19.830Z,16.40
2019-05-20T08:10:23.734Z,16.30
2019-05-20T08:15:27.478Z,16.30
2019-05-20T08:20:31.246Z,16.40
2019-05-20T08:25:35.126Z,16.40
2019-05-20T08:30:39.552Z,16.50
2019-05-20T08:35:43.219Z,16.70
2019-05-20T08:40:48.771Z,16.90
2019-05-20T08:45:52.857Z,16.90
2019-05-20T08:50:57.606Z,16.90
2019-05-20T08:56:01.157Z,16.90
2019-05-20T09:01:04.945Z,16.80
2019-05-20T09:06:08.796Z,16.90
2019-05-20T09:11:12.425Z,16.90
2019-05-20T09:16:16.014Z,16.90
2019-05-20T09:21:19.761Z,16.90
2019-05-20T09:26:23.428Z,16.70
2019-05-20T09:31:27.361Z,16.50
2019-05-20T09:36:31.035Z,16.50
2019-05-20T09:41:34.668Z,16.70
2019-05-20T09:46:38.300Z,16.80
2019-05-20T09:51:41.894Z,17.00
2019-05-20T09:56:45.480Z,17.10
2019-05-20T10:01:50.007Z,17.30
2019-05-20T10:06:54.024Z,17.30
2019-05-20T10:11:57.586Z,17.40
2019-05-20T10:17:01.520Z,17.40
2019-05-20T10:22:05.570Z,17.40
2019-05-20T10:27:09.211Z,17.30
2019-05-20T10:32:12.778Z,17.30
2019-05-20T10:37:16.387Z,17.10
2019-05-20T10:42:20.181Z,17.20
2019-05-20T10:47:24.033Z,16.20
2019-05-20T10:52:27.607Z,15.90
2019-05-20T10:57:31.351Z,15.90
2019-05-20T11:02:35.094Z,15.70
2019-05-20T11:07:38.844Z,15.90
2019-05-20T11:12:42.387Z,16.00
2019-05-20T11:17:46.058Z,16.00
2019-05-20T11:22:49.709Z,15.80
2019-05-20T11:27:53.250Z,15.70
2019-05-20T11:32:56.937Z,15.70
2019-05-20T11:38:00.533Z,15.80
2019-05-20T11:43:04.190Z,15.80
2019-05-20T11:48:07.879Z,16.00
2019-05-20T11:53:11.510Z,15.90
2019-05-20T11:58:16.532Z,15.80
2019-05-20T12:03:20.393Z,16.00
2019-05-20T12:08:24.037Z,16.20
2019-05-20T12:13:28.433Z,16.40
2019-05-20T12:18:32.044Z,16.30
2019-05-20T12:23:35.607Z,15.70
2019-05-20T12:28:39.278Z,15.80
2019-05-20T12:33:42.867Z,16.30
2019-05-20T12:38:46.498Z,16.60
2019-05-20T12:44:09.549Z,16.80
2019-05-20T12:48:55.729Z,16.90
2019-05-20T12:53:59.251Z,16.80
2019-05-20T12:59:03.059Z,16.20
2019-05-20T13:04:07.069Z,15.90
2019-05-20T13:09:10.736Z,15.70
2019-05-20T13:14:14.338Z,15.80
2019-05-20T13:19:17.997Z,15.90
2019-05-20T13:24:21.655Z,15.90
2019-05-20T13:29:25.346Z,16.30
2019-05-20T13:34:28.946Z,16.80
2019-05-20T13:39:32.566Z,17.40
2019-05-20T13:44:36.137Z,17.50
2019-05-20T13:49:39.709Z,17.50
2019-05-20T13:54:43.481Z,17.80
2019-05-20T13:59:47.219Z,17.80
2019-05-20T14:04:50.931Z,17.80
2019-05-20T14:09:54.696Z,18.00
2019-05-20T14:14:58.280Z,17.60
2019-05-20T14:20:01.942Z,17.40
2019-05-20T14:25:07.718Z,17.40
2019-05-20T14:30:12.783Z,17.20
2019-05-20T14:35:16.514Z,17.00
2019-05-20T14:40:20.362Z,16.80
2019-05-20T14:45:23.965Z,16.70
2019-05-20T14:50:27.569Z,16.80
2019-05-20T14:55:41.483Z,16.90
2019-05-20T15:00:37.221Z,17.20
2019-05-20T15:05:41.081Z,17.40
2019-05-20T15:10:44.829Z,17.60
2019-05-20T15:15:48.786Z,17.50
2019-05-20T15:20:53.332Z,17.60
2019-05-20T15:25:57.202Z,17.40
2019-05-20T15:31:00.759Z,17.40
2019-05-20T15:36:04.712Z,17.10
2019-05-20T15:41:08.315Z,17.10
2019-05-20T15:46:11.978Z,17.00
2019-05-20T15:51:15.765Z,17.10
2019-05-20T15:56:19.535Z,17.20
2019-05-20T16:01:23.212Z,17.10
2019-05-20T16:06:26.816Z,17.10
2019-05-20T16:11:30.559Z,17.00
2019-05-20T16:16:34.129Z,16.90
2019-05-20T16:21:37.849Z,16.90
2019-05-20T16:26:41.518Z,16.80
2019-05-20T16:31:45.380Z,17.00
2019-05-20T16:36:49.152Z,17.00
2019-05-20T16:41:52.854Z,16.90
2019-05-20T16:46:56.604Z,16.80
2019-05-20T16:52:00.277Z,16.60
2019-05-20T16:57:03.951Z,16.40
2019-05-20T17:02:07.674Z,16.30
2019-05-20T17:07:11.414Z,16.30
2019-05-20T17:12:15.064Z,16.20
2019-05-20T17:17:18.736Z,15.80
2019-05-20T17:22:22.363Z,15.60
2019-05-20T17:27:27.182Z,15.70
2019-05-20T17:32:30.733Z,15.70
2019-05-20T17:37:34.396Z,15.80
2019-05-20T17:42:38.282Z,16.00
2019-05-20T17:47:41.955Z,15.70
2019-05-20T17:52:48.141Z,15.70
2019-05-20T17:57:51.851Z,15.60
2019-05-20T18:02:55.514Z,15.60
2019-05-20T18:07:59.192Z,15.50
2019-05-20T18:13:02.835Z,15.60
2019-05-20T18:18:06.664Z,15.40
2019-05-20T18:23:10.231Z,15.30
2019-05-20T18:28:13.925Z,15.10
2019-05-20T18:33:17.858Z,15.30
2019-05-20T18:38:21.594Z,15.10
2019-05-20T18:43:25.240Z,15.00
2019-05-20T18:48:28.910Z,14.90
2019-05-20T18:53:32.463Z,14.80
2019-05-20T18:58:36.146Z,14.60
2019-05-20T19:03:39.999Z,14.40
2019-05-20T19:08:43.758Z,14.00
2019-05-20T19:13:47.347Z,14.00
2019-05-20T19:18:51.218Z,13.70
2019-05-20T19:23:55.166Z,13.60
2019-05-20T19:28:58.962Z,13.50
2019-05-20T19:34:02.679Z,13.30
2019-05-20T19:39:07.815Z,13.50
2019-05-20T19:44:13.497Z,13.60
2019-05-20T19:49:18.575Z,13.70
2019-05-20T19:54:22.275Z,13.80
2019-05-20T19:59:26.002Z,13.80
2019-05-20T20:04:29.557Z,13.50
2019-05-20T20:09:33.270Z,13.60
2019-05-20T20:14:36.862Z,13.30
2019-05-20T20:19:40.607Z,13.20
2019-05-20T20:24:44.257Z,13.20
2019-05-20T20:29:47.845Z,13.00
2019-05-20T20:34:51.502Z,13.00
2019-05-20T20:39:55.066Z,13.10
2019-05-20T20:44:58.878Z,13.10
2019-05-20T20:50:04.291Z,13.10
2019-05-20T20:55:08.409Z,13.30
2019-05-20T21:00:12.602Z,13.30
2019-05-20T21:05:16.306Z,13.30
2019-05-20T21:10:20.027Z,13.50
2019-05-20T21:15:23.687Z,13.50
2019-05-20T21:20:27.691Z,13.00
2019-05-20T21:25:31.291Z,12.90
2019-05-20T21:30:34.953Z,12.90
2019-05-20T21:35:38.571Z,13.10
2019-05-20T21:40:42.162Z,13.10
2019-05-20T21:45:45.759Z,13.00
2019-05-20T21:50:49.342Z,13.30
2019-05-20T21:55:52.990Z,13.40
2019-05-20T22:00:57.508Z,13.50
2019-05-20T22:06:01.159Z,13.40
2019-05-20T22:11:04.818Z,13.50
2019-05-20T22:16:08.454Z,13.50
2019-05-20T22:21:13.842Z,13.40
2019-05-20T22:26:17.415Z,13.50
2019-05-20T22:31:21.139Z,13.40
2019-05-20T22:36:24.853Z,13.40
2019-05-20T22:41:28.817Z,13.40
2019-05-20T22:46:32.479Z,13.30
2019-05-20T22:51:36.283Z,13.40
2019-05-20T22:56:39.898Z,13.50
2019-05-20T23:01:43.446Z,13.40
2019-05-20T23:06:46.966Z,13.50
2019-05-20T23:11:50.626Z,13.40
2019-05-20T23:16:54.382Z,13.40
2019-05-20T23:21:57.996Z,13.40
2019-05-20T23:27:01.589Z,13.40
2019-05-20T23:32:05.142Z,13.40
2019-05-20T23:37:08.742Z,13.40
2019-05-20T23:42:12.347Z,13.50
2019-05-20T23:47:16.012Z,13.40
2019-05-20T23:52:19.630Z,13.20
2019-05-20T23:57:23.415Z,13.30
